sensor_id;sensor_type;location;lat;lon;timestamp;P1;durP1;ratioP1;P2;durP2;ratioP2
73938;SDS011;62291;47.554;8.504;2024-01-11T00:00:29;88.63;;;36.58;;
73938;SDS011;62291;47.554;8.504;2024-01-11T00:02:55;94.25;;;37.00;;
73938;SDS011;62291;47.554;8.504;2024-01-11T00:05:20;93.32;;;37.92;;
73938;SDS011;62291;47.554;8.504;2024-01-11T00:07:46;92.10;;;37.83;;
73938;SDS011;62291;47.554;8.504;2024-01-11T00:10:12;91.93;;;35.70;;
73938;SDS011;62291;47.554;8.504;2024-01-11T00:12:38;87.25;;;33.90;;
73938;SDS011;62291;47.554;8.504;2024-01-11T00:15:04;95.00;;;35.10;;
73938;SDS011;62291;47.554;8.504;2024-01-11T00:17:30;84.63;;;33.60;;
73938;SDS011;62291;47.554;8.504;2024-01-11T00:19:56;90.85;;;33.97;;
73938;SDS011;62291;47.554;8.504;2024-01-11T00:22:22;90.13;;;32.35;;
73938;SDS011;62291;47.554;8.504;2024-01-11T00:24:48;89.25;;;35.85;;
73938;SDS011;62291;47.554;8.504;2024-01-11T00:27:13;92.15;;;35.85;;
73938;SDS011;62291;47.554;8.504;2024-01-11T00:29:39;87.90;;;32.70;;
73938;SDS011;62291;47.554;8.504;2024-01-11T00:32:05;93.50;;;34.83;;
73938;SDS011;62291;47.554;8.504;2024-01-11T00:34:30;92.90;;;32.33;;
73938;SDS011;62291;47.554;8.504;2024-01-11T00:36:56;89.03;;;33.95;;
73938;SDS011;62291;47.554;8.504;2024-01-11T00:39:22;83.20;;;31.10;;
73938;SDS011;62291;47.554;8.504;2024-01-11T00:41:48;86.72;;;33.30;;
73938;SDS011;62291;47.554;8.504;2024-01-11T00:44:13;91.97;;;31.50;;
73938;SDS011;62291;47.554;8.504;2024-01-11T00:46:39;83.50;;;27.73;;
73938;SDS011;62291;47.554;8.504;2024-01-11T00:49:06;96.75;;;35.75;;
73938;SDS011;62291;47.554;8.504;2024-01-11T00:51:32;82.40;;;28.02;;
73938;SDS011;62291;47.554;8.504;2024-01-11T00:53:57;97.63;;;35.45;;
73938;SDS011;62291;47.554;8.504;2024-01-11T00:56:23;95.07;;;34.47;;
73938;SDS011;62291;47.554;8.504;2024-01-11T00:58:49;95.40;;;35.95;;
73938;SDS011;62291;47.554;8.504;2024-01-11T01:01:15;92.10;;;34.25;;
73938;SDS011;62291;47.554;8.504;2024-01-11T01:03:40;97.53;;;36.20;;
73938;SDS011;62291;47.554;8.504;2024-01-11T01:06:06;98.25;;;36.20;;
73938;SDS011;62291;47.554;8.504;2024-01-11T01:08:32;100.63;;;35.38;;
73938;SDS011;62291;47.554;8.504;2024-01-11T01:10:57;96.82;;;37.30;;
73938;SDS011;62291;47.554;8.504;2024-01-11T01:13:23;95.50;;;35.20;;
73938;SDS011;62291;47.554;8.504;2024-01-11T01:15:49;96.47;;;34.58;;
73938;SDS011;62291;47.554;8.504;2024-01-11T01:18:14;92.70;;;34.53;;
73938;SDS011;62291;47.554;8.504;2024-01-11T01:20:40;92.85;;;35.53;;
73938;SDS011;62291;47.554;8.504;2024-01-11T01:23:06;99.93;;;36.45;;
73938;SDS011;62291;47.554;8.504;2024-01-11T01:25:32;85.38;;;33.78;;
73938;SDS011;62291;47.554;8.504;2024-01-11T01:27:57;92.22;;;34.50;;
73938;SDS011;62291;47.554;8.504;2024-01-11T01:30:25;91.88;;;35.33;;
73938;SDS011;62291;47.554;8.504;2024-01-11T01:32:51;93.53;;;32.70;;
73938;SDS011;62291;47.554;8.504;2024-01-11T01:35:17;74.40;;;26.20;;
73938;SDS011;62291;47.554;8.504;2024-01-11T01:37:43;95.80;;;32.25;;
73938;SDS011;62291;47.554;8.504;2024-01-11T01:40:09;92.75;;;33.70;;
73938;SDS011;62291;47.554;8.504;2024-01-11T01:42:36;90.00;;;32.53;;
73938;SDS011;62291;47.554;8.504;2024-01-11T01:45:06;92.60;;;33.25;;
73938;SDS011;62291;47.554;8.504;2024-01-11T01:47:32;93.95;;;33.65;;
73938;SDS011;62291;47.554;8.504;2024-01-11T01:49:58;91.53;;;32.97;;
73938;SDS011;62291;47.554;8.504;2024-01-11T01:52:24;77.50;;;28.30;;
73938;SDS011;62291;47.554;8.504;2024-01-11T01:54:50;93.85;;;31.90;;
73938;SDS011;62291;47.554;8.504;2024-01-11T01:57:16;86.05;;;32.00;;
73938;SDS011;62291;47.554;8.504;2024-01-11T01:59:43;85.78;;;31.88;;
73938;SDS011;62291;47.554;8.504;2024-01-11T02:02:11;93.47;;;33.97;;
73938;SDS011;62291;47.554;8.504;2024-01-11T02:04:37;79.70;;;30.02;;
73938;SDS011;62291;47.554;8.504;2024-01-11T02:07:03;92.60;;;34.95;;
73938;SDS011;62291;47.554;8.504;2024-01-11T02:09:31;89.55;;;30.23;;
73938;SDS011;62291;47.554;8.504;2024-01-11T02:11:58;92.75;;;31.30;;
73938;SDS011;62291;47.554;8.504;2024-01-11T02:14:25;99.10;;;33.28;;
73938;SDS011;62291;47.554;8.504;2024-01-11T02:16:51;96.65;;;34.33;;
73938;SDS011;62291;47.554;8.504;2024-01-11T02:19:18;92.57;;;35.78;;
73938;SDS011;62291;47.554;8.504;2024-01-11T02:21:44;87.05;;;34.05;;
73938;SDS011;62291;47.554;8.504;2024-01-11T02:24:11;94.57;;;32.88;;
73938;SDS011;62291;47.554;8.504;2024-01-11T02:26:44;92.30;;;35.03;;
73938;SDS011;62291;47.554;8.504;2024-01-11T02:29:24;75.75;;;29.67;;
73938;SDS011;62291;47.554;8.504;2024-01-11T02:31:50;87.25;;;32.83;;
73938;SDS011;62291;47.554;8.504;2024-01-11T02:34:16;81.38;;;30.90;;
73938;SDS011;62291;47.554;8.504;2024-01-11T02:36:42;85.70;;;31.45;;
73938;SDS011;62291;47.554;8.504;2024-01-11T02:39:08;79.97;;;29.80;;
73938;SDS011;62291;47.554;8.504;2024-01-11T02:41:35;80.82;;;31.77;;
73938;SDS011;62291;47.554;8.504;2024-01-11T02:44:02;67.32;;;24.00;;
73938;SDS011;62291;47.554;8.504;2024-01-11T02:46:28;81.75;;;31.65;;
73938;SDS011;62291;47.554;8.504;2024-01-11T02:48:53;89.30;;;34.10;;
73938;SDS011;62291;47.554;8.504;2024-01-11T02:51:19;85.47;;;31.77;;
73938;SDS011;62291;47.554;8.504;2024-01-11T02:53:45;90.30;;;34.30;;
73938;SDS011;62291;47.554;8.504;2024-01-11T02:56:10;85.72;;;33.78;;
73938;SDS011;62291;47.554;8.504;2024-01-11T02:58:36;85.22;;;29.90;;
73938;SDS011;62291;47.554;8.504;2024-01-11T03:01:02;80.55;;;31.08;;
73938;SDS011;62291;47.554;8.504;2024-01-11T03:03:28;87.93;;;34.50;;
73938;SDS011;62291;47.554;8.504;2024-01-11T03:05:54;90.65;;;34.67;;
73938;SDS011;62291;47.554;8.504;2024-01-11T03:08:19;86.63;;;34.67;;
73938;SDS011;62291;47.554;8.504;2024-01-11T03:10:45;85.68;;;33.20;;
73938;SDS011;62291;47.554;8.504;2024-01-11T03:13:11;85.57;;;29.27;;
73938;SDS011;62291;47.554;8.504;2024-01-11T03:15:37;81.68;;;33.22;;
73938;SDS011;62291;47.554;8.504;2024-01-11T03:18:04;89.13;;;35.05;;
73938;SDS011;62291;47.554;8.504;2024-01-11T03:20:30;78.82;;;30.98;;
73938;SDS011;62291;47.554;8.504;2024-01-11T03:22:55;76.95;;;28.45;;
73938;SDS011;62291;47.554;8.504;2024-01-11T03:25:21;83.68;;;31.65;;
73938;SDS011;62291;47.554;8.504;2024-01-11T03:27:47;80.57;;;28.95;;
73938;SDS011;62291;47.554;8.504;2024-01-11T03:30:12;88.72;;;33.63;;
73938;SDS011;62291;47.554;8.504;2024-01-11T03:32:38;76.43;;;30.13;;
73938;SDS011;62291;47.554;8.504;2024-01-11T03:35:07;80.65;;;33.60;;
73938;SDS011;62291;47.554;8.504;2024-01-11T03:37:33;93.68;;;35.15;;
73938;SDS011;62291;47.554;8.504;2024-01-11T03:40:02;82.25;;;31.35;;
73938;SDS011;62291;47.554;8.504;2024-01-11T03:42:29;91.82;;;34.25;;
73938;SDS011;62291;47.554;8.504;2024-01-11T03:44:54;82.50;;;32.97;;
73938;SDS011;62291;47.554;8.504;2024-01-11T03:47:20;85.43;;;33.55;;
73938;SDS011;62291;47.554;8.504;2024-01-11T03:49:46;82.38;;;32.80;;
73938;SDS011;62291;47.554;8.504;2024-01-11T03:52:12;85.13;;;35.58;;
73938;SDS011;62291;47.554;8.504;2024-01-11T03:54:37;90.85;;;34.72;;
73938;SDS011;62291;47.554;8.504;2024-01-11T03:57:03;86.38;;;34.72;;
73938;SDS011;62291;47.554;8.504;2024-01-11T03:59:29;80.13;;;35.13;;
73938;SDS011;62291;47.554;8.504;2024-01-11T04:01:55;74.88;;;33.38;;
73938;SDS011;62291;47.554;8.504;2024-01-11T04:04:22;80.97;;;33.20;;
73938;SDS011;62291;47.554;8.504;2024-01-11T04:06:48;89.10;;;34.95;;
73938;SDS011;62291;47.554;8.504;2024-01-11T04:09:14;83.72;;;32.60;;
73938;SDS011;62291;47.554;8.504;2024-01-11T04:11:40;87.25;;;35.40;;
73938;SDS011;62291;47.554;8.504;2024-01-11T04:14:06;84.78;;;35.10;;
73938;SDS011;62291;47.554;8.504;2024-01-11T04:16:31;85.20;;;33.90;;
73938;SDS011;62291;47.554;8.504;2024-01-11T04:18:57;80.63;;;31.98;;
73938;SDS011;62291;47.554;8.504;2024-01-11T04:21:23;84.50;;;35.30;;
73938;SDS011;62291;47.554;8.504;2024-01-11T04:23:50;88.45;;;35.08;;
73938;SDS011;62291;47.554;8.504;2024-01-11T04:26:19;90.57;;;35.10;;
73938;SDS011;62291;47.554;8.504;2024-01-11T04:28:45;84.75;;;34.30;;
73938;SDS011;62291;47.554;8.504;2024-01-11T04:31:11;77.38;;;30.70;;
73938;SDS011;62291;47.554;8.504;2024-01-11T04:33:41;82.30;;;34.75;;
73938;SDS011;62291;47.554;8.504;2024-01-11T04:36:07;85.15;;;35.70;;
73938;SDS011;62291;47.554;8.504;2024-01-11T04:38:34;85.82;;;36.35;;
73938;SDS011;62291;47.554;8.504;2024-01-11T04:40:59;87.97;;;34.90;;
73938;SDS011;62291;47.554;8.504;2024-01-11T04:43:25;88.78;;;35.28;;
73938;SDS011;62291;47.554;8.504;2024-01-11T04:45:51;89.95;;;34.53;;
73938;SDS011;62291;47.554;8.504;2024-01-11T04:48:17;92.32;;;34.97;;
73938;SDS011;62291;47.554;8.504;2024-01-11T04:50:43;86.13;;;33.80;;
73938;SDS011;62291;47.554;8.504;2024-01-11T04:53:09;88.97;;;34.17;;
73938;SDS011;62291;47.554;8.504;2024-01-11T04:55:35;92.03;;;36.83;;
73938;SDS011;62291;47.554;8.504;2024-01-11T04:58:01;84.95;;;33.58;;
73938;SDS011;62291;47.554;8.504;2024-01-11T05:00:26;84.35;;;33.15;;
73938;SDS011;62291;47.554;8.504;2024-01-11T05:02:52;90.10;;;35.58;;
73938;SDS011;62291;47.554;8.504;2024-01-11T05:05:18;88.68;;;33.97;;
73938;SDS011;62291;47.554;8.504;2024-01-11T05:07:43;97.70;;;37.38;;
73938;SDS011;62291;47.554;8.504;2024-01-11T05:10:09;94.13;;;34.65;;
73938;SDS011;62291;47.554;8.504;2024-01-11T05:12:35;88.75;;;31.95;;
73938;SDS011;62291;47.554;8.504;2024-01-11T05:15:02;98.47;;;35.42;;
73938;SDS011;62291;47.554;8.504;2024-01-11T05:17:28;89.00;;;35.95;;
73938;SDS011;62291;47.554;8.504;2024-01-11T05:19:53;84.82;;;35.05;;
73938;SDS011;62291;47.554;8.504;2024-01-11T05:22:19;91.18;;;34.17;;
73938;SDS011;62291;47.554;8.504;2024-01-11T05:24:45;92.10;;;33.95;;
73938;SDS011;62291;47.554;8.504;2024-01-11T05:27:10;92.82;;;34.20;;
73938;SDS011;62291;47.554;8.504;2024-01-11T05:29:36;102.95;;;37.15;;
73938;SDS011;62291;47.554;8.504;2024-01-11T05:32:02;87.63;;;36.97;;
73938;SDS011;62291;47.554;8.504;2024-01-11T05:34:27;92.93;;;38.15;;
73938;SDS011;62291;47.554;8.504;2024-01-11T05:36:53;81.88;;;35.15;;
73938;SDS011;62291;47.554;8.504;2024-01-11T05:39:19;91.35;;;36.97;;
73938;SDS011;62291;47.554;8.504;2024-01-11T05:41:45;95.28;;;37.97;;
73938;SDS011;62291;47.554;8.504;2024-01-11T05:44:10;89.68;;;37.65;;
73938;SDS011;62291;47.554;8.504;2024-01-11T05:46:36;83.80;;;36.17;;
73938;SDS011;62291;47.554;8.504;2024-01-11T05:49:02;89.47;;;37.67;;
73938;SDS011;62291;47.554;8.504;2024-01-11T05:51:28;88.60;;;37.28;;
73938;SDS011;62291;47.554;8.504;2024-01-11T05:53:54;89.65;;;37.40;;
73938;SDS011;62291;47.554;8.504;2024-01-11T05:56:20;96.47;;;38.22;;
73938;SDS011;62291;47.554;8.504;2024-01-11T05:58:46;91.53;;;38.67;;
73938;SDS011;62291;47.554;8.504;2024-01-11T06:01:11;82.18;;;36.67;;
73938;SDS011;62291;47.554;8.504;2024-01-11T06:03:37;86.63;;;36.78;;
73938;SDS011;62291;47.554;8.504;2024-01-11T06:06:04;93.80;;;40.17;;
73938;SDS011;62291;47.554;8.504;2024-01-11T06:08:30;88.95;;;38.35;;
73938;SDS011;62291;47.554;8.504;2024-01-11T06:10:56;92.18;;;37.03;;
73938;SDS011;62291;47.554;8.504;2024-01-11T06:13:22;94.05;;;38.47;;
73938;SDS011;62291;47.554;8.504;2024-01-11T06:15:48;92.47;;;39.45;;
73938;SDS011;62291;47.554;8.504;2024-01-11T06:18:15;93.85;;;38.97;;
73938;SDS011;62291;47.554;8.504;2024-01-11T06:20:41;87.45;;;36.90;;
73938;SDS011;62291;47.554;8.504;2024-01-11T06:23:06;87.53;;;38.13;;
73938;SDS011;62291;47.554;8.504;2024-01-11T06:25:32;89.18;;;37.22;;
73938;SDS011;62291;47.554;8.504;2024-01-11T06:27:58;88.55;;;36.70;;
73938;SDS011;62291;47.554;8.504;2024-01-11T06:30:24;94.07;;;40.83;;
73938;SDS011;62291;47.554;8.504;2024-01-11T06:32:50;87.13;;;37.80;;
73938;SDS011;62291;47.554;8.504;2024-01-11T06:35:16;89.68;;;38.15;;
73938;SDS011;62291;47.554;8.504;2024-01-11T06:37:41;89.68;;;37.40;;
73938;SDS011;62291;47.554;8.504;2024-01-11T06:40:08;86.50;;;36.65;;
73938;SDS011;62291;47.554;8.504;2024-01-11T06:42:34;86.78;;;37.20;;
73938;SDS011;62291;47.554;8.504;2024-01-11T06:45:00;90.22;;;37.95;;
73938;SDS011;62291;47.554;8.504;2024-01-11T06:47:26;81.20;;;35.88;;
73938;SDS011;62291;47.554;8.504;2024-01-11T06:49:52;84.55;;;38.97;;
73938;SDS011;62291;47.554;8.504;2024-01-11T06:52:18;90.40;;;38.63;;
73938;SDS011;62291;47.554;8.504;2024-01-11T06:54:44;84.65;;;37.83;;
73938;SDS011;62291;47.554;8.504;2024-01-11T06:57:10;84.75;;;36.95;;
73938;SDS011;62291;47.554;8.504;2024-01-11T06:59:36;85.80;;;39.75;;
73938;SDS011;62291;47.554;8.504;2024-01-11T07:02:02;91.88;;;40.60;;
73938;SDS011;62291;47.554;8.504;2024-01-11T07:04:28;86.70;;;36.15;;
73938;SDS011;62291;47.554;8.504;2024-01-11T07:06:54;82.97;;;36.70;;
73938;SDS011;62291;47.554;8.504;2024-01-11T07:09:19;90.90;;;39.40;;
73938;SDS011;62291;47.554;8.504;2024-01-11T07:11:45;76.85;;;32.20;;
73938;SDS011;62291;47.554;8.504;2024-01-11T07:14:11;81.78;;;33.42;;
73938;SDS011;62291;47.554;8.504;2024-01-11T07:16:36;89.93;;;37.20;;
73938;SDS011;62291;47.554;8.504;2024-01-11T07:19:02;88.90;;;38.72;;
73938;SDS011;62291;47.554;8.504;2024-01-11T07:21:28;89.05;;;37.90;;
73938;SDS011;62291;47.554;8.504;2024-01-11T07:23:59;88.38;;;37.33;;
73938;SDS011;62291;47.554;8.504;2024-01-11T07:26:25;90.40;;;39.55;;
73938;SDS011;62291;47.554;8.504;2024-01-11T07:28:51;96.25;;;40.05;;
73938;SDS011;62291;47.554;8.504;2024-01-11T07:31:19;97.88;;;40.42;;
73938;SDS011;62291;47.554;8.504;2024-01-11T07:33:45;95.28;;;37.72;;
73938;SDS011;62291;47.554;8.504;2024-01-11T07:36:11;90.00;;;40.38;;
73938;SDS011;62291;47.554;8.504;2024-01-11T07:38:37;93.15;;;39.92;;
73938;SDS011;62291;47.554;8.504;2024-01-11T07:41:03;92.15;;;40.83;;
73938;SDS011;62291;47.554;8.504;2024-01-11T07:43:29;94.40;;;40.85;;
73938;SDS011;62291;47.554;8.504;2024-01-11T07:45:56;93.35;;;41.60;;
73938;SDS011;62291;47.554;8.504;2024-01-11T07:48:22;87.00;;;36.60;;
73938;SDS011;62291;47.554;8.504;2024-01-11T07:50:50;89.38;;;38.47;;
73938;SDS011;62291;47.554;8.504;2024-01-11T07:53:16;94.97;;;40.50;;
73938;SDS011;62291;47.554;8.504;2024-01-11T07:55:42;83.68;;;36.13;;
73938;SDS011;62291;47.554;8.504;2024-01-11T07:58:08;89.45;;;39.95;;
73938;SDS011;62291;47.554;8.504;2024-01-11T08:00:33;92.88;;;39.33;;
73938;SDS011;62291;47.554;8.504;2024-01-11T08:02:59;79.47;;;33.58;;
73938;SDS011;62291;47.554;8.504;2024-01-11T08:05:25;86.25;;;37.28;;
73938;SDS011;62291;47.554;8.504;2024-01-11T08:07:51;84.20;;;39.15;;
73938;SDS011;62291;47.554;8.504;2024-01-11T08:10:17;83.20;;;37.50;;
73938;SDS011;62291;47.554;8.504;2024-01-11T08:12:42;82.85;;;38.13;;
73938;SDS011;62291;47.554;8.504;2024-01-11T08:15:08;86.80;;;37.65;;
73938;SDS011;62291;47.554;8.504;2024-01-11T08:17:38;81.90;;;34.20;;
73938;SDS011;62291;47.554;8.504;2024-01-11T08:20:04;89.97;;;40.40;;
73938;SDS011;62291;47.554;8.504;2024-01-11T08:22:33;83.30;;;37.50;;
73938;SDS011;62291;47.554;8.504;2024-01-11T08:25:01;80.68;;;38.85;;
73938;SDS011;62291;47.554;8.504;2024-01-11T08:27:29;81.03;;;37.58;;
73938;SDS011;62291;47.554;8.504;2024-01-11T08:29:56;85.03;;;39.10;;
73938;SDS011;62291;47.554;8.504;2024-01-11T08:32:22;81.97;;;40.10;;
73938;SDS011;62291;47.554;8.504;2024-01-11T08:34:48;81.20;;;37.50;;
73938;SDS011;62291;47.554;8.504;2024-01-11T08:37:13;79.05;;;37.92;;
73938;SDS011;62291;47.554;8.504;2024-01-11T08:39:39;80.85;;;39.35;;
73938;SDS011;62291;47.554;8.504;2024-01-11T08:42:05;79.97;;;36.75;;
73938;SDS011;62291;47.554;8.504;2024-01-11T08:44:31;77.65;;;36.67;;
73938;SDS011;62291;47.554;8.504;2024-01-11T08:46:57;83.88;;;37.75;;
73938;SDS011;62291;47.554;8.504;2024-01-11T08:49:24;81.10;;;37.90;;
73938;SDS011;62291;47.554;8.504;2024-01-11T08:51:50;83.28;;;39.00;;
73938;SDS011;62291;47.554;8.504;2024-01-11T08:54:16;78.40;;;35.78;;
73938;SDS011;62291;47.554;8.504;2024-01-11T08:56:42;83.22;;;38.22;;
73938;SDS011;62291;47.554;8.504;2024-01-11T08:59:08;84.50;;;38.00;;
73938;SDS011;62291;47.554;8.504;2024-01-11T09:01:34;78.65;;;37.83;;
73938;SDS011;62291;47.554;8.504;2024-01-11T09:04:01;84.90;;;37.10;;
73938;SDS011;62291;47.554;8.504;2024-01-11T09:06:27;84.55;;;38.58;;
73938;SDS011;62291;47.554;8.504;2024-01-11T09:08:53;75.82;;;37.17;;
73938;SDS011;62291;47.554;8.504;2024-01-11T09:11:18;77.97;;;38.90;;
73938;SDS011;62291;47.554;8.504;2024-01-11T09:13:44;80.70;;;35.58;;
73938;SDS011;62291;47.554;8.504;2024-01-11T09:16:13;80.20;;;37.90;;
73938;SDS011;62291;47.554;8.504;2024-01-11T09:18:40;78.65;;;38.55;;
73938;SDS011;62291;47.554;8.504;2024-01-11T09:21:07;81.35;;;38.97;;
73938;SDS011;62291;47.554;8.504;2024-01-11T09:23:33;85.55;;;39.17;;
73938;SDS011;62291;47.554;8.504;2024-01-11T09:25:59;82.70;;;39.53;;
73938;SDS011;62291;47.554;8.504;2024-01-11T09:28:25;87.65;;;38.92;;
73938;SDS011;62291;47.554;8.504;2024-01-11T09:30:51;79.95;;;36.50;;
73938;SDS011;62291;47.554;8.504;2024-01-11T09:33:16;84.53;;;38.63;;
73938;SDS011;62291;47.554;8.504;2024-01-11T09:35:42;80.57;;;34.75;;
73938;SDS011;62291;47.554;8.504;2024-01-11T09:38:07;79.50;;;35.00;;
73938;SDS011;62291;47.554;8.504;2024-01-11T09:40:33;87.03;;;35.70;;
73938;SDS011;62291;47.554;8.504;2024-01-11T09:43:00;86.97;;;37.53;;
73938;SDS011;62291;47.554;8.504;2024-01-11T09:45:29;82.53;;;37.50;;
73938;SDS011;62291;47.554;8.504;2024-01-11T09:47:54;84.60;;;37.88;;
73938;SDS011;62291;47.554;8.504;2024-01-11T09:50:20;91.18;;;38.92;;
73938;SDS011;62291;47.554;8.504;2024-01-11T09:52:48;85.95;;;37.88;;
73938;SDS011;62291;47.554;8.504;2024-01-11T09:55:14;81.85;;;36.72;;
73938;SDS011;62291;47.554;8.504;2024-01-11T09:57:44;86.57;;;35.50;;
73938;SDS011;62291;47.554;8.504;2024-01-11T10:00:18;88.95;;;36.97;;
73938;SDS011;62291;47.554;8.504;2024-01-11T10:02:47;83.93;;;36.80;;
73938;SDS011;62291;47.554;8.504;2024-01-11T10:05:13;84.72;;;38.30;;
73938;SDS011;62291;47.554;8.504;2024-01-11T10:07:39;90.65;;;39.42;;
73938;SDS011;62291;47.554;8.504;2024-01-11T10:10:05;78.18;;;35.15;;
73938;SDS011;62291;47.554;8.504;2024-01-11T10:12:34;85.35;;;36.65;;
73938;SDS011;62291;47.554;8.504;2024-01-11T10:15:07;84.85;;;37.28;;
73938;SDS011;62291;47.554;8.504;2024-01-11T10:17:40;83.22;;;36.08;;
73938;SDS011;62291;47.554;8.504;2024-01-11T10:20:08;82.57;;;33.22;;
73938;SDS011;62291;47.554;8.504;2024-01-11T10:22:35;88.65;;;39.00;;
73938;SDS011;62291;47.554;8.504;2024-01-11T10:25:07;92.80;;;37.78;;
73938;SDS011;62291;47.554;8.504;2024-01-11T10:27:38;84.65;;;36.83;;
73938;SDS011;62291;47.554;8.504;2024-01-11T10:30:07;83.32;;;32.53;;
73938;SDS011;62291;47.554;8.504;2024-01-11T10:32:33;87.95;;;36.85;;
73938;SDS011;62291;47.554;8.504;2024-01-11T10:35:00;86.75;;;33.90;;
73938;SDS011;62291;47.554;8.504;2024-01-11T10:37:30;76.40;;;32.72;;
73938;SDS011;62291;47.554;8.504;2024-01-11T10:39:57;90.28;;;37.78;;
73938;SDS011;62291;47.554;8.504;2024-01-11T10:42:24;81.10;;;34.38;;
73938;SDS011;62291;47.554;8.504;2024-01-11T10:44:53;104.30;;;41.03;;
73938;SDS011;62291;47.554;8.504;2024-01-11T10:47:23;85.40;;;34.35;;
73938;SDS011;62291;47.554;8.504;2024-01-11T10:49:54;88.90;;;37.33;;
73938;SDS011;62291;47.554;8.504;2024-01-11T10:52:22;80.30;;;35.15;;
73938;SDS011;62291;47.554;8.504;2024-01-11T10:54:53;89.53;;;36.13;;
73938;SDS011;62291;47.554;8.504;2024-01-11T10:57:21;85.13;;;32.42;;
73938;SDS011;62291;47.554;8.504;2024-01-11T10:59:47;91.90;;;37.67;;
73938;SDS011;62291;47.554;8.504;2024-01-11T11:02:14;86.60;;;34.55;;
73938;SDS011;62291;47.554;8.504;2024-01-11T11:04:41;94.25;;;38.45;;
73938;SDS011;62291;47.554;8.504;2024-01-11T11:07:08;89.20;;;34.75;;
73938;SDS011;62291;47.554;8.504;2024-01-11T11:09:35;85.20;;;35.30;;
73938;SDS011;62291;47.554;8.504;2024-01-11T11:12:02;86.63;;;30.80;;
73938;SDS011;62291;47.554;8.504;2024-01-11T11:14:29;86.60;;;35.17;;
73938;SDS011;62291;47.554;8.504;2024-01-11T11:16:57;87.00;;;35.40;;
73938;SDS011;62291;47.554;8.504;2024-01-11T11:19:24;80.38;;;30.73;;
73938;SDS011;62291;47.554;8.504;2024-01-11T11:21:50;80.20;;;32.75;;
73938;SDS011;62291;47.554;8.504;2024-01-11T11:24:16;93.88;;;38.00;;
73938;SDS011;62291;47.554;8.504;2024-01-11T11:26:42;90.45;;;37.40;;
73938;SDS011;62291;47.554;8.504;2024-01-11T11:29:08;80.10;;;31.73;;
73938;SDS011;62291;47.554;8.504;2024-01-11T11:34:06;94.63;;;35.78;;
73938;SDS011;62291;47.554;8.504;2024-01-11T11:36:35;90.68;;;34.90;;
73938;SDS011;62291;47.554;8.504;2024-01-11T11:39:01;94.55;;;37.17;;
73938;SDS011;62291;47.554;8.504;2024-01-11T11:41:27;107.97;;;40.15;;
73938;SDS011;62291;47.554;8.504;2024-01-11T11:44:00;96.60;;;37.28;;
73938;SDS011;62291;47.554;8.504;2024-01-11T11:46:29;97.88;;;35.90;;
73938;SDS011;62291;47.554;8.504;2024-01-11T11:48:56;97.47;;;39.38;;
73938;SDS011;62291;47.554;8.504;2024-01-11T11:51:23;93.93;;;35.00;;
73938;SDS011;62291;47.554;8.504;2024-01-11T11:53:49;100.13;;;37.38;;
73938;SDS011;62291;47.554;8.504;2024-01-11T11:56:25;91.15;;;35.25;;
73938;SDS011;62291;47.554;8.504;2024-01-11T11:58:51;102.28;;;38.95;;
73938;SDS011;62291;47.554;8.504;2024-01-11T12:01:19;97.50;;;38.88;;
73938;SDS011;62291;47.554;8.504;2024-01-11T12:03:45;91.32;;;34.35;;
73938;SDS011;62291;47.554;8.504;2024-01-11T12:06:15;101.55;;;39.20;;
73938;SDS011;62291;47.554;8.504;2024-01-11T12:08:46;94.03;;;37.65;;
73938;SDS011;62291;47.554;8.504;2024-01-11T12:11:13;94.38;;;34.75;;
73938;SDS011;62291;47.554;8.504;2024-01-11T12:13:39;93.57;;;36.47;;
73938;SDS011;62291;47.554;8.504;2024-01-11T12:16:06;94.80;;;35.95;;
73938;SDS011;62291;47.554;8.504;2024-01-11T12:18:31;89.72;;;36.25;;
73938;SDS011;62291;47.554;8.504;2024-01-11T12:20:57;90.72;;;34.72;;
73938;SDS011;62291;47.554;8.504;2024-01-11T12:23:23;80.40;;;31.55;;
73938;SDS011;62291;47.554;8.504;2024-01-11T12:25:49;93.43;;;37.60;;
73938;SDS011;62291;47.554;8.504;2024-01-11T12:28:14;80.10;;;27.95;;
73938;SDS011;62291;47.554;8.504;2024-01-11T12:30:41;57.70;;;20.48;;
73938;SDS011;62291;47.554;8.504;2024-01-11T12:33:07;76.53;;;29.20;;
73938;SDS011;62291;47.554;8.504;2024-01-11T12:35:33;85.38;;;30.98;;
73938;SDS011;62291;47.554;8.504;2024-01-11T12:38:05;94.65;;;36.80;;
73938;SDS011;62291;47.554;8.504;2024-01-11T12:40:35;87.85;;;34.25;;
73938;SDS011;62291;47.554;8.504;2024-01-11T12:43:07;85.30;;;35.42;;
73938;SDS011;62291;47.554;8.504;2024-01-11T12:45:36;93.35;;;36.42;;
73938;SDS011;62291;47.554;8.504;2024-01-11T12:48:02;91.22;;;37.92;;
73938;SDS011;62291;47.554;8.504;2024-01-11T12:50:31;81.80;;;31.15;;
73938;SDS011;62291;47.554;8.504;2024-01-11T12:56:01;75.55;;;30.58;;
73938;SDS011;62291;47.554;8.504;2024-01-11T12:58:30;72.28;;;27.73;;
73938;SDS011;62291;47.554;8.504;2024-01-11T13:00:55;75.82;;;29.75;;
73938;SDS011;62291;47.554;8.504;2024-01-11T13:03:22;67.13;;;24.15;;
73938;SDS011;62291;47.554;8.504;2024-01-11T13:05:50;66.85;;;27.30;;
73938;SDS011;62291;47.554;8.504;2024-01-11T13:08:16;69.72;;;26.02;;
73938;SDS011;62291;47.554;8.504;2024-01-11T13:10:42;69.82;;;27.23;;
73938;SDS011;62291;47.554;8.504;2024-01-11T13:13:07;66.18;;;24.58;;
73938;SDS011;62291;47.554;8.504;2024-01-11T13:15:33;71.07;;;31.75;;
73938;SDS011;62291;47.554;8.504;2024-01-11T13:18:00;63.72;;;27.20;;
73938;SDS011;62291;47.554;8.504;2024-01-11T13:20:26;73.30;;;30.13;;
73938;SDS011;62291;47.554;8.504;2024-01-11T13:25:45;70.13;;;27.45;;
73938;SDS011;62291;47.554;8.504;2024-01-11T13:28:12;58.50;;;23.02;;
73938;SDS011;62291;47.554;8.504;2024-01-11T13:30:39;65.63;;;24.65;;
73938;SDS011;62291;47.554;8.504;2024-01-11T13:33:05;65.10;;;27.98;;
73938;SDS011;62291;47.554;8.504;2024-01-11T13:35:33;68.72;;;28.55;;
73938;SDS011;62291;47.554;8.504;2024-01-11T13:38:00;65.22;;;27.13;;
73938;SDS011;62291;47.554;8.504;2024-01-11T13:40:26;65.75;;;27.63;;
73938;SDS011;62291;47.554;8.504;2024-01-11T13:42:54;60.90;;;27.20;;
73938;SDS011;62291;47.554;8.504;2024-01-11T13:45:23;59.83;;;24.42;;
73938;SDS011;62291;47.554;8.504;2024-01-11T13:47:49;60.45;;;24.00;;
73938;SDS011;62291;47.554;8.504;2024-01-11T13:50:15;63.42;;;25.25;;
73938;SDS011;62291;47.554;8.504;2024-01-11T13:52:42;64.43;;;26.27;;
73938;SDS011;62291;47.554;8.504;2024-01-11T13:55:09;55.28;;;25.48;;
73938;SDS011;62291;47.554;8.504;2024-01-11T13:57:36;55.72;;;22.92;;
73938;SDS011;62291;47.554;8.504;2024-01-11T14:00:03;59.08;;;24.00;;
73938;SDS011;62291;47.554;8.504;2024-01-11T14:02:29;55.65;;;22.60;;
73938;SDS011;62291;47.554;8.504;2024-01-11T14:04:55;55.10;;;24.42;;
73938;SDS011;62291;47.554;8.504;2024-01-11T14:07:21;59.72;;;26.25;;
73938;SDS011;62291;47.554;8.504;2024-01-11T14:09:47;60.67;;;24.92;;
73938;SDS011;62291;47.554;8.504;2024-01-11T14:12:12;58.97;;;25.17;;
73938;SDS011;62291;47.554;8.504;2024-01-11T14:14:40;53.00;;;22.75;;
73938;SDS011;62291;47.554;8.504;2024-01-11T14:17:06;54.13;;;23.73;;
73938;SDS011;62291;47.554;8.504;2024-01-11T14:19:31;51.85;;;19.13;;
73938;SDS011;62291;47.554;8.504;2024-01-11T14:21:57;55.63;;;22.35;;
73938;SDS011;62291;47.554;8.504;2024-01-11T14:24:23;47.40;;;19.98;;